sensor_id;sensor_type;location;lat;lon;timestamp;pressure;altitude;pressure_sealevel;temperature;humidity
84026;BME280;74110;45.660;25.582;2024-03-17T00:00:15;95362.52;;;7.60;64.76
84026;BME280;74110;45.660;25.582;2024-03-17T00:03:05;95363.27;;;7.56;64.32
84026;BME280;74110;45.660;25.582;2024-03-17T00:05:36;95363.77;;;7.53;64.72
84026;BME280;74110;45.660;25.582;2024-03-17T00:08:05;95359.84;;;7.48;65.11
84026;BME280;74110;45.660;25.582;2024-03-17T00:10:35;95362.44;;;7.43;65.28
84026;BME280;74110;45.660;25.582;2024-03-17T00:13:02;95358.58;;;7.36;65.47
84026;BME280;74110;45.660;25.582;2024-03-17T00:15:30;95358.08;;;7.30;66.49
84026;BME280;74110;45.660;25.582;2024-03-17T00:17:59;95357.15;;;7.25;65.35
84026;BME280;74110;45.660;25.582;2024-03-17T00:20:27;95356.98;;;7.26;65.66
84026;BME280;74110;45.660;25.582;2024-03-17T00:22:55;95349.41;;;7.28;66.39
84026;BME280;74110;45.660;25.582;2024-03-17T00:25:23;95353.75;;;7.29;66.39
84026;BME280;74110;45.660;25.582;2024-03-17T00:27:52;95347.26;;;7.25;67.22
84026;BME280;74110;45.660;25.582;2024-03-17T00:30:23;95346.50;;;7.17;67.34
84026;BME280;74110;45.660;25.582;2024-03-17T00:32:52;95342.59;;;7.15;66.44
84026;BME280;74110;45.660;25.582;2024-03-17T00:35:20;95342.88;;;7.11;67.29
84026;BME280;74110;45.660;25.582;2024-03-17T00:37:51;95342.48;;;7.08;67.50
84026;BME280;74110;45.660;25.582;2024-03-17T00:40:20;95340.61;;;6.98;68.37
84026;BME280;74110;45.660;25.582;2024-03-17T00:42:49;95342.15;;;6.92;68.05
84026;BME280;74110;45.660;25.582;2024-03-17T00:45:17;95341.59;;;6.89;68.51
84026;BME280;74110;45.660;25.582;2024-03-17T00:47:45;95339.48;;;6.84;68.26
84026;BME280;74110;45.660;25.582;2024-03-17T00:50:14;95341.05;;;6.81;69.30
84026;BME280;74110;45.660;25.582;2024-03-17T00:52:42;95341.00;;;6.80;68.44
84026;BME280;74110;45.660;25.582;2024-03-17T00:55:11;95337.54;;;6.82;69.24
84026;BME280;74110;45.660;25.582;2024-03-17T00:57:42;95335.48;;;6.85;69.13
84026;BME280;74110;45.660;25.582;2024-03-17T01:00:10;95334.04;;;6.90;69.07
84026;BME280;74110;45.660;25.582;2024-03-17T01:02:40;95338.16;;;6.88;69.27
84026;BME280;74110;45.660;25.582;2024-03-17T01:05:08;95335.44;;;6.83;69.08
84026;BME280;74110;45.660;25.582;2024-03-17T01:07:36;95343.58;;;6.83;69.44
84026;BME280;74110;45.660;25.582;2024-03-17T01:10:04;95344.27;;;6.77;69.85
84026;BME280;74110;45.660;25.582;2024-03-17T01:12:35;95338.95;;;6.72;70.03
84026;BME280;74110;45.660;25.582;2024-03-17T01:15:05;95344.05;;;6.67;71.00
84026;BME280;74110;45.660;25.582;2024-03-17T01:17:34;95344.73;;;6.61;70.70
84026;BME280;74110;45.660;25.582;2024-03-17T01:20:01;95342.31;;;6.61;69.46
84026;BME280;74110;45.660;25.582;2024-03-17T01:22:31;95345.36;;;6.65;69.52
84026;BME280;74110;45.660;25.582;2024-03-17T01:24:59;95343.30;;;6.69;70.27
84026;BME280;74110;45.660;25.582;2024-03-17T01:27:28;95346.52;;;6.73;70.27
84026;BME280;74110;45.660;25.582;2024-03-17T01:29:57;95344.01;;;6.76;70.48
84026;BME280;74110;45.660;25.582;2024-03-17T01:32:25;95340.30;;;6.79;69.48
84026;BME280;74110;45.660;25.582;2024-03-17T01:34:53;95341.05;;;6.80;70.15
84026;BME280;74110;45.660;25.582;2024-03-17T01:37:21;95341.27;;;6.77;70.16
84026;BME280;74110;45.660;25.582;2024-03-17T01:39:48;95339.93;;;6.78;68.99
84026;BME280;74110;45.660;25.582;2024-03-17T01:42:17;95338.77;;;6.82;68.55
84026;BME280;74110;45.660;25.582;2024-03-17T01:44:45;95340.66;;;6.84;68.48
84026;BME280;74110;45.660;25.582;2024-03-17T01:47:16;95344.17;;;6.78;69.50
84026;BME280;74110;45.660;25.582;2024-03-17T01:49:47;95344.36;;;6.67;70.96
84026;BME280;74110;45.660;25.582;2024-03-17T01:52:17;95340.02;;;6.66;70.09
84026;BME280;74110;45.660;25.582;2024-03-17T01:54:48;95337.11;;;6.70;70.11
84026;BME280;74110;45.660;25.582;2024-03-17T01:57:17;95335.15;;;6.75;70.28
84026;BME280;74110;45.660;25.582;2024-03-17T01:59:46;95331.82;;;6.74;70.22
84026;BME280;74110;45.660;25.582;2024-03-17T02:02:17;95333.03;;;6.72;70.05
84026;BME280;74110;45.660;25.582;2024-03-17T02:04:45;95334.83;;;6.73;69.67
84026;BME280;74110;45.660;25.582;2024-03-17T02:07:14;95332.45;;;6.75;70.08
84026;BME280;74110;45.660;25.582;2024-03-17T02:09:43;95333.50;;;6.73;69.89
84026;BME280;74110;45.660;25.582;2024-03-17T02:12:11;95334.92;;;6.75;69.15
84026;BME280;74110;45.660;25.582;2024-03-17T02:14:40;95336.61;;;6.78;68.77
84026;BME280;74110;45.660;25.582;2024-03-17T02:17:08;95331.16;;;6.79;69.49
84026;BME280;74110;45.660;25.582;2024-03-17T02:19:37;95332.27;;;6.80;69.85
84026;BME280;74110;45.660;25.582;2024-03-17T02:22:15;95334.63;;;6.83;69.81
84026;BME280;74110;45.660;25.582;2024-03-17T02:24:45;95335.68;;;6.86;69.47
84026;BME280;74110;45.660;25.582;2024-03-17T02:27:14;95332.41;;;6.87;69.44
84026;BME280;74110;45.660;25.582;2024-03-17T02:29:42;95331.73;;;6.86;69.33
84026;BME280;74110;45.660;25.582;2024-03-17T02:32:12;95324.00;;;6.88;68.67
84026;BME280;74110;45.660;25.582;2024-03-17T02:34:39;95326.95;;;6.89;68.67
84026;BME280;74110;45.660;25.582;2024-03-17T02:37:09;95322.63;;;6.88;68.40
84026;BME280;74110;45.660;25.582;2024-03-17T02:39:41;95324.16;;;6.86;68.67
84026;BME280;74110;45.660;25.582;2024-03-17T02:42:10;95320.65;;;6.79;68.74
84026;BME280;74110;45.660;25.582;2024-03-17T02:44:42;95320.70;;;6.79;69.39
84026;BME280;74110;45.660;25.582;2024-03-17T02:47:15;95316.73;;;6.84;69.78
84026;BME280;74110;45.660;25.582;2024-03-17T02:49:47;95315.86;;;6.88;69.24
84026;BME280;74110;45.660;25.582;2024-03-17T02:52:19;95314.85;;;6.89;68.82
84026;BME280;74110;45.660;25.582;2024-03-17T02:54:47;95314.36;;;6.91;68.37
84026;BME280;74110;45.660;25.582;2024-03-17T02:57:27;95318.91;;;6.92;68.06
84026;BME280;74110;45.660;25.582;2024-03-17T02:59:58;95316.90;;;6.92;67.70
84026;BME280;74110;45.660;25.582;2024-03-17T03:02:26;95316.08;;;6.90;67.64
84026;BME280;74110;45.660;25.582;2024-03-17T03:04:54;95319.63;;;6.87;67.42
84026;BME280;74110;45.660;25.582;2024-03-17T03:07:22;95313.52;;;6.83;67.93
84026;BME280;74110;45.660;25.582;2024-03-17T03:09:51;95313.14;;;6.81;68.78
84026;BME280;74110;45.660;25.582;2024-03-17T03:12:20;95309.34;;;6.80;68.92
84026;BME280;74110;45.660;25.582;2024-03-17T03:14:48;95309.12;;;6.81;69.07
84026;BME280;74110;45.660;25.582;2024-03-17T03:17:17;95317.00;;;6.79;68.90
84026;BME280;74110;45.660;25.582;2024-03-17T03:19:45;95319.70;;;6.79;68.89
84026;BME280;74110;45.660;25.582;2024-03-17T03:22:13;95315.69;;;6.75;69.38
84026;BME280;74110;45.660;25.582;2024-03-17T03:24:41;95320.90;;;6.68;68.82
84026;BME280;74110;45.660;25.582;2024-03-17T03:27:10;95325.13;;;6.64;69.76
84026;BME280;74110;45.660;25.582;2024-03-17T03:29:39;95327.16;;;6.58;69.70
84026;BME280;74110;45.660;25.582;2024-03-17T03:32:08;95326.86;;;6.52;69.55
84026;BME280;74110;45.660;25.582;2024-03-17T03:34:35;95329.50;;;6.49;69.52
84026;BME280;74110;45.660;25.582;2024-03-17T03:37:03;95330.52;;;6.48;69.13
84026;BME280;74110;45.660;25.582;2024-03-17T03:39:33;95327.71;;;6.50;69.45
84026;BME280;74110;45.660;25.582;2024-03-17T03:42:02;95330.17;;;6.54;70.27
84026;BME280;74110;45.660;25.582;2024-03-17T03:44:30;95334.30;;;6.56;70.22
84026;BME280;74110;45.660;25.582;2024-03-17T03:46:59;95326.79;;;6.59;70.33
84026;BME280;74110;45.660;25.582;2024-03-17T03:49:31;95325.36;;;6.61;70.34
84026;BME280;74110;45.660;25.582;2024-03-17T03:51:59;95331.74;;;6.61;70.36
84026;BME280;74110;45.660;25.582;2024-03-17T03:54:27;95332.34;;;6.57;70.38
84026;BME280;74110;45.660;25.582;2024-03-17T03:56:56;95336.94;;;6.54;70.44
84026;BME280;74110;45.660;25.582;2024-03-17T03:59:24;95332.36;;;6.46;71.59
84026;BME280;74110;45.660;25.582;2024-03-17T04:01:52;95330.41;;;6.42;70.97
84026;BME280;74110;45.660;25.582;2024-03-17T04:04:21;95334.28;;;6.37;71.39
84026;BME280;74110;45.660;25.582;2024-03-17T04:06:48;95337.35;;;6.33;69.88
84026;BME280;74110;45.660;25.582;2024-03-17T04:09:16;95332.13;;;6.34;71.13
84026;BME280;74110;45.660;25.582;2024-03-17T04:11:44;95331.80;;;6.35;71.05
84026;BME280;74110;45.660;25.582;2024-03-17T04:14:12;95330.48;;;6.40;71.31
84026;BME280;74110;45.660;25.582;2024-03-17T04:16:40;95334.19;;;6.39;70.96
84026;BME280;74110;45.660;25.582;2024-03-17T04:19:08;95335.92;;;6.43;70.91
84026;BME280;74110;45.660;25.582;2024-03-17T04:21:37;95331.79;;;6.43;71.13
84026;BME280;74110;45.660;25.582;2024-03-17T04:24:05;95334.11;;;6.45;70.83
84026;BME280;74110;45.660;25.582;2024-03-17T04:26:34;95332.48;;;6.40;71.63
84026;BME280;74110;45.660;25.582;2024-03-17T04:29:02;95335.34;;;6.34;71.10
84026;BME280;74110;45.660;25.582;2024-03-17T04:31:31;95336.65;;;6.35;70.30
84026;BME280;74110;45.660;25.582;2024-03-17T04:33:59;95339.30;;;6.40;70.50
84026;BME280;74110;45.660;25.582;2024-03-17T04:36:28;95337.44;;;6.47;71.02
84026;BME280;74110;45.660;25.582;2024-03-17T04:38:58;95338.16;;;6.54;70.91
84026;BME280;74110;45.660;25.582;2024-03-17T04:41:25;95345.33;;;6.59;70.46
84026;BME280;74110;45.660;25.582;2024-03-17T04:43:53;95346.54;;;6.64;70.17
84026;BME280;74110;45.660;25.582;2024-03-17T04:46:23;95347.90;;;6.67;70.03
84026;BME280;74110;45.660;25.582;2024-03-17T04:48:51;95345.21;;;6.64;71.04
84026;BME280;74110;45.660;25.582;2024-03-17T04:51:20;95347.31;;;6.53;71.55
84026;BME280;74110;45.660;25.582;2024-03-17T04:53:48;95350.47;;;6.49;71.32
84026;BME280;74110;45.660;25.582;2024-03-17T04:56:16;95351.79;;;6.48;71.39
84026;BME280;74110;45.660;25.582;2024-03-17T04:58:45;95356.27;;;6.55;71.14
84026;BME280;74110;45.660;25.582;2024-03-17T05:01:14;95353.63;;;6.58;70.73
84026;BME280;74110;45.660;25.582;2024-03-17T05:03:43;95353.14;;;6.57;70.72
84026;BME280;74110;45.660;25.582;2024-03-17T05:06:12;95355.02;;;6.52;71.03
84026;BME280;74110;45.660;25.582;2024-03-17T05:08:40;95351.30;;;6.55;70.30
84026;BME280;74110;45.660;25.582;2024-03-17T05:11:09;95352.24;;;6.59;69.81
84026;BME280;74110;45.660;25.582;2024-03-17T05:13:38;95355.79;;;6.61;70.02
84026;BME280;74110;45.660;25.582;2024-03-17T05:16:07;95353.75;;;6.66;70.46
84026;BME280;74110;45.660;25.582;2024-03-17T05:18:34;95354.85;;;6.70;70.43
84026;BME280;74110;45.660;25.582;2024-03-17T05:21:06;95356.43;;;6.77;70.30
84026;BME280;74110;45.660;25.582;2024-03-17T05:23:37;95358.11;;;6.85;69.75
84026;BME280;74110;45.660;25.582;2024-03-17T05:26:05;95355.87;;;6.87;69.49
84026;BME280;74110;45.660;25.582;2024-03-17T05:28:33;95356.95;;;6.76;69.77
84026;BME280;74110;45.660;25.582;2024-03-17T05:31:01;95352.22;;;6.71;69.92
84026;BME280;74110;45.660;25.582;2024-03-17T05:33:32;95353.88;;;6.66;70.28
84026;BME280;74110;45.660;25.582;2024-03-17T05:36:02;95358.45;;;6.71;69.69
84026;BME280;74110;45.660;25.582;2024-03-17T05:38:30;95353.46;;;6.77;69.48
84026;BME280;74110;45.660;25.582;2024-03-17T05:41:01;95358.15;;;6.85;69.82
84026;BME280;74110;45.660;25.582;2024-03-17T05:43:32;95364.98;;;6.98;70.08
84026;BME280;74110;45.660;25.582;2024-03-17T05:46:09;95359.91;;;7.09;69.51
84026;BME280;74110;45.660;25.582;2024-03-17T05:48:39;95359.60;;;7.10;69.02
84026;BME280;74110;45.660;25.582;2024-03-17T05:51:11;95357.39;;;7.20;69.04
84026;BME280;74110;45.660;25.582;2024-03-17T05:53:39;95359.71;;;7.29;68.85
84026;BME280;74110;45.660;25.582;2024-03-17T05:56:12;95363.79;;;7.40;68.57
84026;BME280;74110;45.660;25.582;2024-03-17T05:58:40;95358.13;;;7.49;68.46
84026;BME280;74110;45.660;25.582;2024-03-17T06:01:08;95361.79;;;7.56;68.24
84026;BME280;74110;45.660;25.582;2024-03-17T06:03:38;95360.90;;;7.63;67.95
84026;BME280;74110;45.660;25.582;2024-03-17T06:06:06;95365.33;;;7.67;68.02
84026;BME280;74110;45.660;25.582;2024-03-17T06:08:38;95367.21;;;7.69;68.13
84026;BME280;74110;45.660;25.582;2024-03-17T06:11:06;95368.31;;;7.72;68.06
84026;BME280;74110;45.660;25.582;2024-03-17T06:13:34;95368.77;;;7.74;67.75
84026;BME280;74110;45.660;25.582;2024-03-17T06:16:03;95371.13;;;7.78;67.64
84026;BME280;74110;45.660;25.582;2024-03-17T06:18:32;95376.27;;;7.85;67.82
84026;BME280;74110;45.660;25.582;2024-03-17T06:21:05;95381.39;;;7.94;67.77
84026;BME280;74110;45.660;25.582;2024-03-17T06:23:33;95378.33;;;8.01;67.50
84026;BME280;74110;45.660;25.582;2024-03-17T06:26:00;95381.39;;;8.08;67.14
84026;BME280;74110;45.660;25.582;2024-03-17T06:28:29;95380.15;;;8.11;66.91
84026;BME280;74110;45.660;25.582;2024-03-17T06:30:58;95379.09;;;8.20;66.85
84026;BME280;74110;45.660;25.582;2024-03-17T06:33:27;95380.83;;;8.31;66.42
84026;BME280;74110;45.660;25.582;2024-03-17T06:36:06;95379.63;;;8.40;66.44
84026;BME280;74110;45.660;25.582;2024-03-17T06:38:34;95382.77;;;8.50;65.83
84026;BME280;74110;45.660;25.582;2024-03-17T06:41:03;95382.67;;;8.61;65.97
84026;BME280;74110;45.660;25.582;2024-03-17T06:43:32;95385.55;;;8.69;65.53
84026;BME280;74110;45.660;25.582;2024-03-17T06:46:02;95388.33;;;8.78;65.40
84026;BME280;74110;45.660;25.582;2024-03-17T06:48:32;95389.06;;;8.84;64.19
84026;BME280;74110;45.660;25.582;2024-03-17T06:51:00;95386.77;;;8.92;64.62
84026;BME280;74110;45.660;25.582;2024-03-17T06:53:29;95389.91;;;9.03;64.61
84026;BME280;74110;45.660;25.582;2024-03-17T06:55:59;95390.84;;;9.16;64.66
84026;BME280;74110;45.660;25.582;2024-03-17T06:58:29;95388.21;;;9.27;64.03
84026;BME280;74110;45.660;25.582;2024-03-17T07:00:59;95391.16;;;9.29;62.81
84026;BME280;74110;45.660;25.582;2024-03-17T07:03:30;95393.83;;;9.28;63.29
84026;BME280;74110;45.660;25.582;2024-03-17T07:06:00;95390.73;;;9.24;62.07
84026;BME280;74110;45.660;25.582;2024-03-17T07:08:32;95390.09;;;9.34;62.80
84026;BME280;74110;45.660;25.582;2024-03-17T07:11:05;95390.45;;;9.48;63.37
84026;BME280;74110;45.660;25.582;2024-03-17T07:13:36;95388.81;;;9.59;62.88
84026;BME280;74110;45.660;25.582;2024-03-17T07:16:07;95386.42;;;9.64;62.28
84026;BME280;74110;45.660;25.582;2024-03-17T07:18:34;95390.42;;;9.70;62.08
84026;BME280;74110;45.660;25.582;2024-03-17T07:21:04;95390.22;;;9.80;62.09
84026;BME280;74110;45.660;25.582;2024-03-17T07:23:34;95390.65;;;9.81;61.00
84026;BME280;74110;45.660;25.582;2024-03-17T07:26:04;95395.90;;;9.92;61.42
84026;BME280;74110;45.660;25.582;2024-03-17T07:28:33;95394.62;;;10.06;60.63
84026;BME280;74110;45.660;25.582;2024-03-17T07:31:03;95392.02;;;10.20;61.11
84026;BME280;74110;45.660;25.582;2024-03-17T07:33:32;95389.63;;;10.39;60.90
84026;BME280;74110;45.660;25.582;2024-03-17T07:36:00;95383.92;;;10.56;60.33
84026;BME280;74110;45.660;25.582;2024-03-17T07:38:30;95384.02;;;10.72;60.01
84026;BME280;74110;45.660;25.582;2024-03-17T07:40:59;95381.20;;;10.84;58.78
84026;BME280;74110;45.660;25.582;2024-03-17T07:43:28;95379.24;;;10.97;58.76
84026;BME280;74110;45.660;25.582;2024-03-17T07:46:03;95378.42;;;11.16;59.75
84026;BME280;74110;45.660;25.582;2024-03-17T07:48:36;95383.35;;;11.28;58.99
84026;BME280;74110;45.660;25.582;2024-03-17T07:51:11;95381.52;;;11.31;58.20
84026;BME280;74110;45.660;25.582;2024-03-17T07:53:40;95382.64;;;11.39;57.83
84026;BME280;74110;45.660;25.582;2024-03-17T07:56:28;95382.46;;;11.42;57.62
84026;BME280;74110;45.660;25.582;2024-03-17T07:58:57;95377.70;;;11.51;57.63
84026;BME280;74110;45.660;25.582;2024-03-17T08:01:25;95377.80;;;11.61;57.62
84026;BME280;74110;45.660;25.582;2024-03-17T08:03:54;95377.40;;;11.72;57.14
84026;BME280;74110;45.660;25.582;2024-03-17T08:06:22;95374.44;;;11.78;56.49
84026;BME280;74110;45.660;25.582;2024-03-17T08:08:50;95372.34;;;11.82;55.90
84026;BME280;74110;45.660;25.582;2024-03-17T08:11:18;95373.94;;;11.82;55.43
84026;BME280;74110;45.660;25.582;2024-03-17T08:13:46;95374.27;;;11.78;55.80
84026;BME280;74110;45.660;25.582;2024-03-17T08:16:14;95371.41;;;11.80;55.67
84026;BME280;74110;45.660;25.582;2024-03-17T08:18:43;95370.98;;;11.78;55.24
84026;BME280;74110;45.660;25.582;2024-03-17T08:21:11;95369.47;;;11.76;55.66
84026;BME280;74110;45.660;25.582;2024-03-17T08:23:41;95364.93;;;11.77;55.21
84026;BME280;74110;45.660;25.582;2024-03-17T08:26:13;95365.60;;;11.85;55.66
84026;BME280;74110;45.660;25.582;2024-03-17T08:28:40;95366.76;;;11.96;55.40
84026;BME280;74110;45.660;25.582;2024-03-17T08:31:09;95365.91;;;12.07;55.55
84026;BME280;74110;45.660;25.582;2024-03-17T08:33:37;95362.02;;;12.18;54.95
84026;BME280;74110;45.660;25.582;2024-03-17T08:36:08;95358.09;;;12.35;54.36
84026;BME280;74110;45.660;25.582;2024-03-17T08:38:38;95355.92;;;12.56;53.71
84026;BME280;74110;45.660;25.582;2024-03-17T08:41:08;95354.55;;;12.74;53.08
84026;BME280;74110;45.660;25.582;2024-03-17T08:43:37;95347.82;;;12.97;52.34
84026;BME280;74110;45.660;25.582;2024-03-17T08:46:07;95348.33;;;13.30;51.40
84026;BME280;74110;45.660;25.582;2024-03-17T08:48:38;95342.33;;;13.67;50.24
84026;BME280;74110;45.660;25.582;2024-03-17T08:51:07;95339.20;;;13.86;47.47
84026;BME280;74110;45.660;25.582;2024-03-17T08:53:35;95338.89;;;13.92;47.20
84026;BME280;74110;45.660;25.582;2024-03-17T08:56:05;95333.98;;;14.06;47.30
84026;BME280;74110;45.660;25.582;2024-03-17T08:58:36;95330.80;;;14.21;47.09
84026;BME280;74110;45.660;25.582;2024-03-17T09:01:04;95332.17;;;14.21;46.40
84026;BME280;74110;45.660;25.582;2024-03-17T09:03:34;95335.15;;;14.22;47.98
84026;BME280;74110;45.660;25.582;2024-03-17T09:06:03;95334.11;;;14.30;48.09
84026;BME280;74110;45.660;25.582;2024-03-17T09:08:32;95332.23;;;14.23;47.12
84026;BME280;74110;45.660;25.582;2024-03-17T09:11:00;95331.59;;;14.18;46.92
84026;BME280;74110;45.660;25.582;2024-03-17T09:13:28;95331.58;;;14.11;47.36
84026;BME280;74110;45.660;25.582;2024-03-17T09:15:57;95329.15;;;14.11;47.55
84026;BME280;74110;45.660;25.582;2024-03-17T09:18:29;95330.18;;;13.94;48.02
84026;BME280;74110;45.660;25.582;2024-03-17T09:21:07;95326.59;;;13.69;47.87
84026;BME280;74110;45.660;25.582;2024-03-17T09:23:35;95323.77;;;13.43;49.25
84026;BME280;74110;45.660;25.582;2024-03-17T09:26:07;95323.61;;;13.12;49.30
84026;BME280;74110;45.660;25.582;2024-03-17T09:28:46;95323.95;;;13.00;50.40
84026;BME280;74110;45.660;25.582;2024-03-17T09:31:16;95323.02;;;12.99;50.75
84026;BME280;74110;45.660;25.582;2024-03-17T09:33:45;95321.70;;;12.93;50.73
84026;BME280;74110;45.660;25.582;2024-03-17T09:36:13;95318.16;;;12.68;50.94
84026;BME280;74110;45.660;25.582;2024-03-17T09:38:41;95320.58;;;12.55;51.26
84026;BME280;74110;45.660;25.582;2024-03-17T09:41:21;95312.42;;;12.49;51.76
84026;BME280;74110;45.660;25.582;2024-03-17T09:43:53;95310.77;;;12.42;51.94
84026;BME280;74110;45.660;25.582;2024-03-17T09:46:23;95309.77;;;12.40;51.82
84026;BME280;74110;45.660;25.582;2024-03-17T09:48:50;95308.89;;;12.31;52.62
84026;BME280;74110;45.660;25.582;2024-03-17T09:51:21;95306.55;;;12.22;52.76
84026;BME280;74110;45.660;25.582;2024-03-17T09:53:49;95307.11;;;12.17;52.63
84026;BME280;74110;45.660;25.582;2024-03-17T09:56:18;95305.95;;;12.02;52.83
84026;BME280;74110;45.660;25.582;2024-03-17T09:58:51;95308.05;;;11.84;53.55
84026;BME280;74110;45.660;25.582;2024-03-17T10:01:20;95304.12;;;11.64;54.23
84026;BME280;74110;45.660;25.582;2024-03-17T10:03:52;95304.77;;;11.64;54.60
84026;BME280;74110;45.660;25.582;2024-03-17T10:06:25;95309.65;;;11.68;54.58
84026;BME280;74110;45.660;25.582;2024-03-17T10:09:02;95307.94;;;11.72;55.01
84026;BME280;74110;45.660;25.582;2024-03-17T10:11:44;95304.88;;;11.74;55.19
84026;BME280;74110;45.660;25.582;2024-03-17T10:14:16;95303.02;;;11.75;54.93
84026;BME280;74110;45.660;25.582;2024-03-17T10:16:44;95302.15;;;11.74;55.52
84026;BME280;74110;45.660;25.582;2024-03-17T10:19:22;95303.04;;;11.72;56.49
84026;BME280;74110;45.660;25.582;2024-03-17T10:22:00;95307.33;;;11.76;55.26
84026;BME280;74110;45.660;25.582;2024-03-17T10:24:29;95306.91;;;11.73;55.41
84026;BME280;74110;45.660;25.582;2024-03-17T10:26:59;95304.60;;;11.72;55.41
84026;BME280;74110;45.660;25.582;2024-03-17T10:29:34;95305.54;;;11.68;55.50
84026;BME280;74110;45.660;25.582;2024-03-17T10:32:17;95309.38;;;11.63;55.80
84026;BME280;74110;45.660;25.582;2024-03-17T10:35:29;95310.93;;;11.54;55.97
84026;BME280;74110;45.660;25.582;2024-03-17T10:38:00;95314.36;;;11.43;56.60
84026;BME280;74110;45.660;25.582;2024-03-17T10:40:35;95318.77;;;11.36;56.78
84026;BME280;74110;45.660;25.582;2024-03-17T10:43:07;95314.78;;;11.26;57.69
84026;BME280;74110;45.660;25.582;2024-03-17T10:45:37;95318.04;;;11.15;57.98
84026;BME280;74110;45.660;25.582;2024-03-17T10:48:15;95314.30;;;11.08;58.03
84026;BME280;74110;45.660;25.582;2024-03-17T10:50:48;95318.95;;;10.98;58.38
84026;BME280;74110;45.660;25.582;2024-03-17T10:53:20;95320.33;;;10.88;59.94
84026;BME280;74110;45.660;25.582;2024-03-17T10:56:04;95317.33;;;10.84;59.92
84026;BME280;74110;45.660;25.582;2024-03-17T10:58:39;95319.57;;;10.81;59.66
84026;BME280;74110;45.660;25.582;2024-03-17T11:01:23;95317.65;;;10.75;60.22
84026;BME280;74110;45.660;25.582;2024-03-17T11:03:52;95317.19;;;10.69;61.04
84026;BME280;74110;45.660;25.582;2024-03-17T11:06:22;95315.41;;;10.61;61.38
84026;BME280;74110;45.660;25.582;2024-03-17T11:08:51;95313.64;;;10.60;61.72
84026;BME280;74110;45.660;25.582;2024-03-17T11:11:37;95318.81;;;10.56;63.65
84026;BME280;74110;45.660;25.582;2024-03-17T11:14:17;95316.45;;;10.48;64.60
84026;BME280;74110;45.660;25.582;2024-03-17T11:17:17;95313.05;;;10.44;63.33
84026;BME280;74110;45.660;25.582;2024-03-17T11:20:10;95309.52;;;10.40;62.70
84026;BME280;74110;45.660;25.582;2024-03-17T11:22:44;95310.30;;;10.35;63.93
84026;BME280;74110;45.660;25.582;2024-03-17T11:25:51;95309.82;;;10.29;63.60
84026;BME280;74110;45.660;25.582;2024-03-17T11:28:45;95310.99;;;10.29;63.72
84026;BME280;74110;45.660;25.582;2024-03-17T11:34:32;95310.23;;;10.07;65.10
84026;BME280;74110;45.660;25.582;2024-03-17T11:37:02;95305.81;;;9.96;65.54
84026;BME280;74110;45.660;25.582;2024-03-17T11:39:52;95305.79;;;9.95;65.35
84026;BME280;74110;45.660;25.582;2024-03-17T11:42:24;95297.35;;;10.01;65.39
84026;BME280;74110;45.660;25.582;2024-03-17T11:44:59;95289.90;;;10.06;66.21
84026;BME280;74110;45.660;25.582;2024-03-17T11:47:38;95292.77;;;10.03;66.73
84026;BME280;74110;45.660;25.582;2024-03-17T11:50:08;95288.61;;;10.03;66.89
84026;BME280;74110;45.660;25.582;2024-03-17T11:52:39;95281.48;;;10.08;67.39
84026;BME280;74110;45.660;25.582;2024-03-17T11:55:23;95285.49;;;10.06;67.01
84026;BME280;74110;45.660;25.582;2024-03-17T11:57:55;95279.17;;;10.02;67.62
84026;BME280;74110;45.660;25.582;2024-03-17T12:00:23;95279.09;;;10.05;67.26
84026;BME280;74110;45.660;25.582;2024-03-17T12:02:53;95275.08;;;10.07;66.52
84026;BME280;74110;45.660;25.582;2024-03-17T12:05:32;95275.18;;;10.07;65.90
84026;BME280;74110;45.660;25.582;2024-03-17T12:08:00;95275.93;;;10.10;66.06
84026;BME280;74110;45.660;25.582;2024-03-17T12:10:27;95270.48;;;10.12;66.32
84026;BME280;74110;45.660;25.582;2024-03-17T12:12:56;95266.48;;;10.16;66.16
84026;BME280;74110;45.660;25.582;2024-03-17T12:15:25;95263.78;;;10.09;67.16
84026;BME280;74110;45.660;25.582;2024-03-17T12:17:54;95256.57;;;10.17;67.46
84026;BME280;74110;45.660;25.582;2024-03-17T12:20:24;95255.75;;;10.28;66.64
84026;BME280;74110;45.660;25.582;2024-03-17T12:22:52;95255.90;;;10.33;66.90
84026;BME280;74110;45.660;25.582;2024-03-17T12:25:22;95255.86;;;10.33;67.13
84026;BME280;74110;45.660;25.582;2024-03-17T12:27:58;95255.30;;;10.38;66.24
84026;BME280;74110;45.660;25.582;2024-03-17T12:30:26;95251.56;;;10.47;66.65
84026;BME280;74110;45.660;25.582;2024-03-17T12:32:55;95252.11;;;10.52;65.30
84026;BME280;74110;45.660;25.582;2024-03-17T12:35:24;95248.80;;;10.68;65.19
84026;BME280;74110;45.660;25.582;2024-03-17T12:37:52;95249.40;;;10.84;64.80
84026;BME280;74110;45.660;25.582;2024-03-17T12:40:22;95245.45;;;10.98;63.21
84026;BME280;74110;45.660;25.582;2024-03-17T12:42:51;95245.00;;;11.09;63.42
84026;BME280;74110;45.660;25.582;2024-03-17T12:45:22;95239.10;;;11.18;62.72
84026;BME280;74110;45.660;25.582;2024-03-17T12:47:51;95235.95;;;11.22;62.73
84026;BME280;74110;45.660;25.582;2024-03-17T12:50:22;95239.36;;;11.24;62.98
84026;BME280;74110;45.660;25.582;2024-03-17T12:52:52;95233.53;;;11.25;61.89
84026;BME280;74110;45.660;25.582;2024-03-17T12:55:22;95231.07;;;11.26;62.04
84026;BME280;74110;45.660;25.582;2024-03-17T12:58:10;95229.65;;;11.27;62.68
84026;BME280;74110;45.660;25.582;2024-03-17T13:01:04;95222.41;;;11.31;61.41
84026;BME280;74110;45.660;25.582;2024-03-17T13:03:35;95220.34;;;11.44;61.95
84026;BME280;74110;45.660;25.582;2024-03-17T13:06:04;95213.57;;;11.58;62.00
84026;BME280;74110;45.660;25.582;2024-03-17T13:08:37;95215.01;;;11.78;62.22
84026;BME280;74110;45.660;25.582;2024-03-17T13:11:08;95212.13;;;12.06;62.54
84026;BME280;74110;45.660;25.582;2024-03-17T13:13:37;95210.23;;;12.39;61.20
84026;BME280;74110;45.660;25.582;2024-03-17T13:16:10;95209.40;;;12.64;60.03